Quick Links (Output Below):   Max & Min Temps   /   Climate Reports   /   Zone Forecasts
River Forecasts   /   Forestry Forecasts   /   Aviation Forecasts   /   Radars   /   Features

Terminal Aerodrome Forecast (Arkadelphia)

Pick a Site:
Arkadelphia | El Dorado | Fayetteville | Fort Smith | Harrison | Highfill | Hot Springs | Jonesboro
Little Rock | Monticello | Mountain Home | Pine Bluff | Texarkana
 Forecast 

KADF 201120Z 2012/2112 10003KT P6SM SCT250
      TEMPO 2012/2014 4SM BR
     FM201500 18006KT P6SM SCT050 BKN150
     FM210900 21004KT P6SM SCT040 BKN050 PROB30 2109/2112 SHRA=


 Latest METARs (Observations) 
How to Decode METARs
13Z KADF 201256Z AUTO 00000KT 8SM BKN065 14/12 A3020 RMK AO2 T01380122
         SLP241
         
12Z KADF 201156Z AUTO 00000KT 9SM BKN060 13/12 A3019 RMK AO2 53010
         T01270122 10133 20116 BKN V OVC SLP238
         
11Z KADF 201056Z AUTO 00000KT 9SM CLR 12/12 A3017 RMK AO2 T01220116
         SLP229
         
10Z KADF 200956Z AUTO 00000KT 6SM BR CLR 12/12 A3017 RMK AO2 T01220122
         SLP228
         
09Z KADF 200856Z AUTO 00000KT 6SM BR CLR 13/13 A3016 RMK AO2 53001
         T01270127 SLP227
         
08Z KADF 200756Z AUTO 00000KT 9SM CLR 13/12 A3016 RMK AO2 T01270122
         SLP227
         
07Z KADF 200656Z AUTO 00000KT 8SM CLR 12/12 A3016 RMK AO2 T01220122
         SLP227
         
06Z KADF 200556Z AUTO 00000KT 7SM CLR 13/13 A3017 RMK AO2 51006
         T01330133 10250 20133 SLP229
         
05Z KADF 200456Z AUTO 00000KT 8SM CLR 14/14 A3016 RMK AO2 T01440144
         402610088 SLP227
         
04Z KADF 200356Z AUTO 00000KT 9SM CLR 16/15 A3015 RMK AO2 T01550150
         SLP224
         
***** Today's Observations (Above) *****


Back to Main Page
http://www.srh.noaa.gov/lzk/qfcst.php

USA.gov is the U.S. government's official web portal to all federal, state and local government web resources and services.